sensor_id;sensor_type;location;lat;lon;timestamp;P1;durP1;ratioP1;P2;durP2;ratioP2
69330;SDS011;56475;52.114;5.480;2022-08-19T00:01:23;3.38;;;2.80;;
69330;SDS011;56475;52.114;5.480;2022-08-19T00:03:56;2.93;;;2.73;;
69330;SDS011;56475;52.114;5.480;2022-08-19T00:06:26;2.47;;;2.28;;
69330;SDS011;56475;52.114;5.480;2022-08-19T00:08:54;7.97;;;3.30;;
69330;SDS011;56475;52.114;5.480;2022-08-19T00:11:22;3.55;;;3.25;;
69330;SDS011;56475;52.114;5.480;2022-08-19T00:13:51;3.65;;;3.05;;
69330;SDS011;56475;52.114;5.480;2022-08-19T00:16:18;2.63;;;2.43;;
69330;SDS011;56475;52.114;5.480;2022-08-19T00:18:51;2.55;;;2.35;;
69330;SDS011;56475;52.114;5.480;2022-08-19T00:21:19;3.00;;;2.67;;
69330;SDS011;56475;52.114;5.480;2022-08-19T00:23:47;3.08;;;2.75;;
69330;SDS011;56475;52.114;5.480;2022-08-19T00:26:14;3.72;;;2.67;;
69330;SDS011;56475;52.114;5.480;2022-08-19T00:28:41;4.33;;;2.73;;
69330;SDS011;56475;52.114;5.480;2022-08-19T00:31:09;4.97;;;3.13;;
69330;SDS011;56475;52.114;5.480;2022-08-19T00:33:36;2.65;;;2.40;;
69330;SDS011;56475;52.114;5.480;2022-08-19T00:36:03;2.80;;;2.50;;
69330;SDS011;56475;52.114;5.480;2022-08-19T00:38:37;2.50;;;2.30;;
69330;SDS011;56475;52.114;5.480;2022-08-19T00:41:10;4.50;;;2.60;;
69330;SDS011;56475;52.114;5.480;2022-08-19T00:43:41;3.22;;;3.03;;
69330;SDS011;56475;52.114;5.480;2022-08-19T00:46:08;2.88;;;2.42;;
69330;SDS011;56475;52.114;5.480;2022-08-19T00:48:35;5.05;;;2.60;;
69330;SDS011;56475;52.114;5.480;2022-08-19T00:51:03;2.47;;;2.28;;
69330;SDS011;56475;52.114;5.480;2022-08-19T00:53:31;3.60;;;2.53;;
69330;SDS011;56475;52.114;5.480;2022-08-19T00:56:00;3.80;;;3.13;;
69330;SDS011;56475;52.114;5.480;2022-08-19T00:58:31;4.20;;;2.70;;
69330;SDS011;56475;52.114;5.480;2022-08-19T01:01:00;4.15;;;3.15;;
69330;SDS011;56475;52.114;5.480;2022-08-19T01:03:28;4.45;;;3.17;;
69330;SDS011;56475;52.114;5.480;2022-08-19T01:06:15;4.83;;;4.40;;
69330;SDS011;56475;52.114;5.480;2022-08-19T01:08:46;8.20;;;5.20;;
69330;SDS011;56475;52.114;5.480;2022-08-19T01:11:15;8.07;;;4.85;;
69330;SDS011;56475;52.114;5.480;2022-08-19T01:13:43;6.18;;;3.75;;
69330;SDS011;56475;52.114;5.480;2022-08-19T01:16:15;5.78;;;4.05;;
69330;SDS011;56475;52.114;5.480;2022-08-19T01:18:44;8.77;;;4.70;;
69330;SDS011;56475;52.114;5.480;2022-08-19T01:21:13;4.63;;;4.22;;
69330;SDS011;56475;52.114;5.480;2022-08-19T01:23:48;8.70;;;4.20;;
69330;SDS011;56475;52.114;5.480;2022-08-19T01:26:17;4.82;;;4.30;;
69330;SDS011;56475;52.114;5.480;2022-08-19T01:28:47;4.50;;;4.10;;
69330;SDS011;56475;52.114;5.480;2022-08-19T01:31:18;4.93;;;4.07;;
69330;SDS011;56475;52.114;5.480;2022-08-19T01:33:53;9.63;;;4.63;;
69330;SDS011;56475;52.114;5.480;2022-08-19T01:36:36;7.95;;;4.57;;
69330;SDS011;56475;52.114;5.480;2022-08-19T01:39:06;6.03;;;4.68;;
69330;SDS011;56475;52.114;5.480;2022-08-19T01:41:37;9.02;;;5.28;;
69330;SDS011;56475;52.114;5.480;2022-08-19T01:44:05;5.03;;;4.53;;
69330;SDS011;56475;52.114;5.480;2022-08-19T01:46:44;4.10;;;3.80;;
69330;SDS011;56475;52.114;5.480;2022-08-19T01:49:14;6.20;;;4.07;;
69330;SDS011;56475;52.114;5.480;2022-08-19T01:51:42;5.22;;;4.13;;
69330;SDS011;56475;52.114;5.480;2022-08-19T01:54:10;5.78;;;4.97;;
69330;SDS011;56475;52.114;5.480;2022-08-19T01:56:53;5.93;;;4.73;;
69330;SDS011;56475;52.114;5.480;2022-08-19T01:59:25;5.65;;;4.60;;
69330;SDS011;56475;52.114;5.480;2022-08-19T02:01:52;5.05;;;3.80;;
69330;SDS011;56475;52.114;5.480;2022-08-19T02:04:19;3.78;;;3.47;;
69330;SDS011;56475;52.114;5.480;2022-08-19T02:06:47;5.75;;;3.90;;
69330;SDS011;56475;52.114;5.480;2022-08-19T02:09:14;9.80;;;4.13;;
69330;SDS011;56475;52.114;5.480;2022-08-19T02:11:42;5.47;;;3.10;;
69330;SDS011;56475;52.114;5.480;2022-08-19T02:14:09;2.58;;;1.90;;
69330;SDS011;56475;52.114;5.480;2022-08-19T02:16:36;1.95;;;1.58;;
69330;SDS011;56475;52.114;5.480;2022-08-19T02:19:04;2.47;;;1.90;;
69330;SDS011;56475;52.114;5.480;2022-08-19T02:21:31;4.80;;;1.70;;
69330;SDS011;56475;52.114;5.480;2022-08-19T02:23:58;2.47;;;1.88;;
69330;SDS011;56475;52.114;5.480;2022-08-19T02:26:25;6.32;;;2.38;;
69330;SDS011;56475;52.114;5.480;2022-08-19T02:28:53;6.20;;;3.08;;
69330;SDS011;56475;52.114;5.480;2022-08-19T02:31:22;2.75;;;2.08;;
69330;SDS011;56475;52.114;5.480;2022-08-19T02:33:51;11.20;;;2.30;;
69330;SDS011;56475;52.114;5.480;2022-08-19T02:36:22;7.07;;;2.58;;
69330;SDS011;56475;52.114;5.480;2022-08-19T02:38:51;10.85;;;2.60;;
69330;SDS011;56475;52.114;5.480;2022-08-19T02:41:26;5.78;;;2.70;;
69330;SDS011;56475;52.114;5.480;2022-08-19T02:43:56;9.32;;;3.28;;
69330;SDS011;56475;52.114;5.480;2022-08-19T02:46:45;7.20;;;3.80;;
69330;SDS011;56475;52.114;5.480;2022-08-19T02:49:13;8.75;;;4.10;;
69330;SDS011;56475;52.114;5.480;2022-08-19T02:51:43;3.90;;;3.50;;
69330;SDS011;56475;52.114;5.480;2022-08-19T02:54:12;3.65;;;3.25;;
69330;SDS011;56475;52.114;5.480;2022-08-19T02:56:40;12.20;;;4.43;;
69330;SDS011;56475;52.114;5.480;2022-08-19T02:59:08;6.90;;;4.33;;
69330;SDS011;56475;52.114;5.480;2022-08-19T03:01:37;5.97;;;4.20;;
69330;SDS011;56475;52.114;5.480;2022-08-19T03:04:08;10.75;;;3.97;;
69330;SDS011;56475;52.114;5.480;2022-08-19T03:06:37;5.60;;;3.13;;
69330;SDS011;56475;52.114;5.480;2022-08-19T03:09:06;9.75;;;3.20;;
69330;SDS011;56475;52.114;5.480;2022-08-19T03:11:33;6.27;;;3.40;;
69330;SDS011;56475;52.114;5.480;2022-08-19T03:14:01;5.13;;;2.72;;
69330;SDS011;56475;52.114;5.480;2022-08-19T03:16:30;3.30;;;3.08;;
69330;SDS011;56475;52.114;5.480;2022-08-19T03:18:59;3.47;;;3.17;;
69330;SDS011;56475;52.114;5.480;2022-08-19T03:21:28;8.15;;;3.50;;
69330;SDS011;56475;52.114;5.480;2022-08-19T03:23:58;3.43;;;3.13;;
69330;SDS011;56475;52.114;5.480;2022-08-19T03:26:26;11.73;;;3.15;;
69330;SDS011;56475;52.114;5.480;2022-08-19T03:28:54;7.80;;;3.00;;
69330;SDS011;56475;52.114;5.480;2022-08-19T03:31:24;7.18;;;3.30;;
69330;SDS011;56475;52.114;5.480;2022-08-19T03:34:14;12.20;;;3.47;;
69330;SDS011;56475;52.114;5.480;2022-08-19T03:36:45;71.00;;;4.10;;
69330;SDS011;56475;52.114;5.480;2022-08-19T03:39:13;16.73;;;3.80;;
69330;SDS011;56475;52.114;5.480;2022-08-19T03:41:41;24.02;;;4.32;;
69330;SDS011;56475;52.114;5.480;2022-08-19T03:44:16;8.98;;;3.60;;
69330;SDS011;56475;52.114;5.480;2022-08-19T03:46:48;6.30;;;3.72;;
69330;SDS011;56475;52.114;5.480;2022-08-19T03:49:18;7.67;;;4.43;;
69330;SDS011;56475;52.114;5.480;2022-08-19T03:51:47;5.70;;;4.15;;
69330;SDS011;56475;52.114;5.480;2022-08-19T03:54:16;17.50;;;5.85;;
69330;SDS011;56475;52.114;5.480;2022-08-19T03:56:45;31.42;;;7.13;;
69330;SDS011;56475;52.114;5.480;2022-08-19T03:59:20;23.80;;;6.80;;
69330;SDS011;56475;52.114;5.480;2022-08-19T04:01:56;11.83;;;5.77;;
69330;SDS011;56475;52.114;5.480;2022-08-19T04:04:24;6.38;;;5.43;;
69330;SDS011;56475;52.114;5.480;2022-08-19T04:06:55;14.52;;;5.97;;
69330;SDS011;56475;52.114;5.480;2022-08-19T04:09:22;13.52;;;6.15;;
69330;SDS011;56475;52.114;5.480;2022-08-19T04:11:50;15.00;;;7.07;;
69330;SDS011;56475;52.114;5.480;2022-08-19T04:14:22;13.23;;;6.23;;
69330;SDS011;56475;52.114;5.480;2022-08-19T04:16:51;12.32;;;6.60;;
69330;SDS011;56475;52.114;5.480;2022-08-19T04:19:19;12.05;;;7.90;;
69330;SDS011;56475;52.114;5.480;2022-08-19T04:21:47;11.15;;;6.50;;
69330;SDS011;56475;52.114;5.480;2022-08-19T04:24:16;14.38;;;7.45;;
69330;SDS011;56475;52.114;5.480;2022-08-19T04:26:44;12.30;;;6.63;;
69330;SDS011;56475;52.114;5.480;2022-08-19T04:29:13;23.98;;;6.53;;
69330;SDS011;56475;52.114;5.480;2022-08-19T04:31:45;15.50;;;6.78;;
69330;SDS011;56475;52.114;5.480;2022-08-19T04:34:13;13.50;;;6.82;;
69330;SDS011;56475;52.114;5.480;2022-08-19T04:36:44;11.68;;;6.82;;
69330;SDS011;56475;52.114;5.480;2022-08-19T04:39:13;9.70;;;7.17;;
69330;SDS011;56475;52.114;5.480;2022-08-19T04:41:42;9.40;;;7.97;;
69330;SDS011;56475;52.114;5.480;2022-08-19T04:44:30;7.57;;;6.53;;
69330;SDS011;56475;52.114;5.480;2022-08-19T04:47:00;6.68;;;5.95;;
69330;SDS011;56475;52.114;5.480;2022-08-19T04:49:36;8.55;;;6.20;;
69330;SDS011;56475;52.114;5.480;2022-08-19T04:52:04;6.70;;;5.30;;
69330;SDS011;56475;52.114;5.480;2022-08-19T04:54:31;6.38;;;5.50;;
69330;SDS011;56475;52.114;5.480;2022-08-19T04:57:08;6.15;;;5.55;;
69330;SDS011;56475;52.114;5.480;2022-08-19T04:59:37;12.10;;;6.57;;
69330;SDS011;56475;52.114;5.480;2022-08-19T05:02:06;9.90;;;7.30;;
69330;SDS011;56475;52.114;5.480;2022-08-19T05:04:34;9.07;;;6.67;;
69330;SDS011;56475;52.114;5.480;2022-08-19T05:07:06;7.82;;;5.70;;
69330;SDS011;56475;52.114;5.480;2022-08-19T05:09:34;8.30;;;6.15;;
69330;SDS011;56475;52.114;5.480;2022-08-19T05:12:21;6.85;;;5.13;;
69330;SDS011;56475;52.114;5.480;2022-08-19T05:14:54;7.18;;;5.80;;
69330;SDS011;56475;52.114;5.480;2022-08-19T05:17:23;11.37;;;6.97;;
69330;SDS011;56475;52.114;5.480;2022-08-19T05:19:54;10.32;;;6.40;;
69330;SDS011;56475;52.114;5.480;2022-08-19T05:22:40;7.65;;;5.90;;
69330;SDS011;56475;52.114;5.480;2022-08-19T05:25:10;9.15;;;6.85;;
69330;SDS011;56475;52.114;5.480;2022-08-19T05:27:40;8.82;;;6.93;;
69330;SDS011;56475;52.114;5.480;2022-08-19T05:30:09;8.23;;;6.17;;
69330;SDS011;56475;52.114;5.480;2022-08-19T05:32:37;6.72;;;6.00;;
69330;SDS011;56475;52.114;5.480;2022-08-19T05:35:05;6.80;;;6.15;;
69330;SDS011;56475;52.114;5.480;2022-08-19T05:37:33;6.30;;;5.70;;
69330;SDS011;56475;52.114;5.480;2022-08-19T05:40:00;8.70;;;6.22;;
69330;SDS011;56475;52.114;5.480;2022-08-19T05:42:27;7.33;;;6.33;;
69330;SDS011;56475;52.114;5.480;2022-08-19T05:44:54;7.28;;;6.00;;
69330;SDS011;56475;52.114;5.480;2022-08-19T05:47:22;9.77;;;6.53;;
69330;SDS011;56475;52.114;5.480;2022-08-19T05:49:49;9.23;;;6.82;;
69330;SDS011;56475;52.114;5.480;2022-08-19T05:52:18;8.95;;;7.30;;
69330;SDS011;56475;52.114;5.480;2022-08-19T05:54:51;9.63;;;7.67;;
69330;SDS011;56475;52.114;5.480;2022-08-19T05:57:22;9.75;;;7.32;;
69330;SDS011;56475;52.114;5.480;2022-08-19T05:59:50;13.23;;;8.20;;
69330;SDS011;56475;52.114;5.480;2022-08-19T06:02:27;14.35;;;7.47;;
69330;SDS011;56475;52.114;5.480;2022-08-19T06:04:57;16.48;;;9.95;;
69330;SDS011;56475;52.114;5.480;2022-08-19T06:07:24;25.40;;;12.47;;
69330;SDS011;56475;52.114;5.480;2022-08-19T06:09:51;27.80;;;13.95;;
69330;SDS011;56475;52.114;5.480;2022-08-19T06:12:30;42.10;;;21.05;;
69330;SDS011;56475;52.114;5.480;2022-08-19T06:15:05;41.75;;;21.45;;
69330;SDS011;56475;52.114;5.480;2022-08-19T06:17:34;54.10;;;22.83;;
69330;SDS011;56475;52.114;5.480;2022-08-19T06:20:06;55.93;;;25.60;;
69330;SDS011;56475;52.114;5.480;2022-08-19T06:22:45;53.33;;;23.23;;
69330;SDS011;56475;52.114;5.480;2022-08-19T06:25:15;55.38;;;25.45;;
69330;SDS011;56475;52.114;5.480;2022-08-19T06:27:43;52.55;;;23.92;;
69330;SDS011;56475;52.114;5.480;2022-08-19T06:30:31;64.93;;;29.17;;
69330;SDS011;56475;52.114;5.480;2022-08-19T06:32:58;67.00;;;30.73;;
69330;SDS011;56475;52.114;5.480;2022-08-19T06:35:25;64.88;;;30.30;;
69330;SDS011;56475;52.114;5.480;2022-08-19T06:37:53;71.68;;;33.10;;
69330;SDS011;56475;52.114;5.480;2022-08-19T06:40:20;68.28;;;30.83;;
69330;SDS011;56475;52.114;5.480;2022-08-19T06:42:47;78.22;;;33.58;;
69330;SDS011;56475;52.114;5.480;2022-08-19T06:45:19;85.83;;;34.27;;
69330;SDS011;56475;52.114;5.480;2022-08-19T06:47:50;77.07;;;34.92;;
69330;SDS011;56475;52.114;5.480;2022-08-19T06:50:25;73.93;;;34.05;;
69330;SDS011;56475;52.114;5.480;2022-08-19T06:52:52;81.68;;;36.70;;
69330;SDS011;56475;52.114;5.480;2022-08-19T06:55:20;80.75;;;36.88;;
69330;SDS011;56475;52.114;5.480;2022-08-19T06:57:47;87.80;;;39.80;;
69330;SDS011;56475;52.114;5.480;2022-08-19T07:00:17;100.63;;;42.30;;
69330;SDS011;56475;52.114;5.480;2022-08-19T07:02:44;93.15;;;41.13;;
69330;SDS011;56475;52.114;5.480;2022-08-19T07:05:22;96.30;;;39.83;;
69330;SDS011;56475;52.114;5.480;2022-08-19T07:07:49;97.88;;;40.53;;
69330;SDS011;56475;52.114;5.480;2022-08-19T07:10:17;102.23;;;40.50;;
69330;SDS011;56475;52.114;5.480;2022-08-19T07:12:45;90.20;;;38.47;;
69330;SDS011;56475;52.114;5.480;2022-08-19T07:15:12;97.90;;;39.47;;
69330;SDS011;56475;52.114;5.480;2022-08-19T07:17:39;97.00;;;39.97;;
69330;SDS011;56475;52.114;5.480;2022-08-19T07:20:07;95.05;;;39.80;;
69330;SDS011;56475;52.114;5.480;2022-08-19T07:22:36;99.87;;;41.53;;
69330;SDS011;56475;52.114;5.480;2022-08-19T07:25:05;98.95;;;38.58;;
69330;SDS011;56475;52.114;5.480;2022-08-19T07:27:34;93.65;;;39.05;;
69330;SDS011;56475;52.114;5.480;2022-08-19T07:30:02;92.57;;;39.50;;
69330;SDS011;56475;52.114;5.480;2022-08-19T07:32:31;87.40;;;37.03;;
69330;SDS011;56475;52.114;5.480;2022-08-19T07:34:58;81.15;;;36.78;;
69330;SDS011;56475;52.114;5.480;2022-08-19T07:37:27;85.07;;;37.65;;
69330;SDS011;56475;52.114;5.480;2022-08-19T07:39:59;81.63;;;37.25;;
69330;SDS011;56475;52.114;5.480;2022-08-19T07:42:27;78.75;;;36.38;;
69330;SDS011;56475;52.114;5.480;2022-08-19T07:44:56;75.40;;;36.25;;
69330;SDS011;56475;52.114;5.480;2022-08-19T07:47:25;72.57;;;35.67;;
69330;SDS011;56475;52.114;5.480;2022-08-19T07:50:14;75.18;;;35.78;;
69330;SDS011;56475;52.114;5.480;2022-08-19T07:52:42;77.20;;;38.15;;
69330;SDS011;56475;52.114;5.480;2022-08-19T07:55:15;76.65;;;37.55;;
69330;SDS011;56475;52.114;5.480;2022-08-19T07:58:03;70.93;;;34.55;;
69330;SDS011;56475;52.114;5.480;2022-08-19T08:00:31;72.73;;;36.70;;
69330;SDS011;56475;52.114;5.480;2022-08-19T08:02:59;77.78;;;36.47;;
69330;SDS011;56475;52.114;5.480;2022-08-19T08:05:26;71.47;;;35.92;;
69330;SDS011;56475;52.114;5.480;2022-08-19T08:08:13;72.45;;;34.97;;
69330;SDS011;56475;52.114;5.480;2022-08-19T08:10:59;69.80;;;34.03;;
69330;SDS011;56475;52.114;5.480;2022-08-19T08:13:27;66.97;;;33.00;;
69330;SDS011;56475;52.114;5.480;2022-08-19T08:15:54;65.80;;;32.70;;
69330;SDS011;56475;52.114;5.480;2022-08-19T08:18:25;62.20;;;32.22;;
69330;SDS011;56475;52.114;5.480;2022-08-19T08:20:56;62.00;;;31.35;;
69330;SDS011;56475;52.114;5.480;2022-08-19T08:23:24;56.30;;;30.10;;
69330;SDS011;56475;52.114;5.480;2022-08-19T08:25:53;62.42;;;32.20;;
69330;SDS011;56475;52.114;5.480;2022-08-19T08:28:25;55.30;;;29.95;;
69330;SDS011;56475;52.114;5.480;2022-08-19T08:30:55;55.35;;;29.38;;
69330;SDS011;56475;52.114;5.480;2022-08-19T08:33:24;49.70;;;27.92;;
69330;SDS011;56475;52.114;5.480;2022-08-19T08:36:09;52.28;;;27.63;;
69330;SDS011;56475;52.114;5.480;2022-08-19T08:38:37;49.72;;;27.65;;
69330;SDS011;56475;52.114;5.480;2022-08-19T08:43:58;48.65;;;26.75;;
69330;SDS011;56475;52.114;5.480;2022-08-19T08:52:17;46.55;;;26.02;;
69330;SDS011;56475;52.114;5.480;2022-08-19T08:54:50;41.42;;;24.70;;
69330;SDS011;56475;52.114;5.480;2022-08-19T08:57:42;47.65;;;23.52;;
69330;SDS011;56475;52.114;5.480;2022-08-19T09:00:32;36.95;;;22.83;;
69330;SDS011;56475;52.114;5.480;2022-08-19T09:03:02;38.17;;;21.80;;
69330;SDS011;56475;52.114;5.480;2022-08-19T09:05:37;39.60;;;22.98;;
69330;SDS011;56475;52.114;5.480;2022-08-19T09:10:56;34.33;;;19.75;;
69330;SDS011;56475;52.114;5.480;2022-08-19T09:18:43;33.50;;;20.00;;
69330;SDS011;56475;52.114;5.480;2022-08-19T09:21:15;36.10;;;19.83;;
69330;SDS011;56475;52.114;5.480;2022-08-19T09:23:42;29.23;;;17.77;;
69330;SDS011;56475;52.114;5.480;2022-08-19T09:26:12;33.70;;;17.67;;
69330;SDS011;56475;52.114;5.480;2022-08-19T09:28:42;35.85;;;18.48;;
69330;SDS011;56475;52.114;5.480;2022-08-19T09:31:16;29.77;;;17.88;;
69330;SDS011;56475;52.114;5.480;2022-08-19T09:33:45;34.67;;;16.90;;
69330;SDS011;56475;52.114;5.480;2022-08-19T09:36:14;30.08;;;17.92;;
69330;SDS011;56475;52.114;5.480;2022-08-19T09:38:58;29.65;;;18.85;;
69330;SDS011;56475;52.114;5.480;2022-08-19T09:41:27;34.15;;;18.27;;
69330;SDS011;56475;52.114;5.480;2022-08-19T09:43:55;36.53;;;18.92;;
69330;SDS011;56475;52.114;5.480;2022-08-19T09:46:25;31.25;;;18.65;;
69330;SDS011;56475;52.114;5.480;2022-08-19T09:48:56;33.67;;;17.13;;
69330;SDS011;56475;52.114;5.480;2022-08-19T09:51:31;30.73;;;18.05;;
69330;SDS011;56475;52.114;5.480;2022-08-19T09:54:01;32.00;;;17.77;;
69330;SDS011;56475;52.114;5.480;2022-08-19T09:56:30;25.83;;;15.13;;
69330;SDS011;56475;52.114;5.480;2022-08-19T09:59:00;31.67;;;15.40;;
69330;SDS011;56475;52.114;5.480;2022-08-19T10:01:30;26.55;;;15.95;;
69330;SDS011;56475;52.114;5.480;2022-08-19T10:03:59;30.80;;;14.52;;
69330;SDS011;56475;52.114;5.480;2022-08-19T10:06:35;35.75;;;14.80;;
69330;SDS011;56475;52.114;5.480;2022-08-19T10:09:12;27.73;;;13.95;;
69330;SDS011;56475;52.114;5.480;2022-08-19T10:11:40;22.60;;;13.60;;
69330;SDS011;56475;52.114;5.480;2022-08-19T10:14:17;19.98;;;12.75;;
69330;SDS011;56475;52.114;5.480;2022-08-19T10:16:48;23.27;;;14.27;;
69330;SDS011;56475;52.114;5.480;2022-08-19T10:19:16;22.60;;;14.05;;
69330;SDS011;56475;52.114;5.480;2022-08-19T10:21:51;24.15;;;12.88;;
69330;SDS011;56475;52.114;5.480;2022-08-19T10:24:25;20.10;;;12.83;;
69330;SDS011;56475;52.114;5.480;2022-08-19T10:26:55;25.65;;;13.90;;
69330;SDS011;56475;52.114;5.480;2022-08-19T10:29:24;35.50;;;13.88;;
69330;SDS011;56475;52.114;5.480;2022-08-19T10:31:59;22.15;;;13.20;;
69330;SDS011;56475;52.114;5.480;2022-08-19T10:34:28;22.15;;;13.82;;
69330;SDS011;56475;52.114;5.480;2022-08-19T10:36:56;25.93;;;15.67;;
69330;SDS011;56475;52.114;5.480;2022-08-19T10:39:28;26.23;;;16.75;;
69330;SDS011;56475;52.114;5.480;2022-08-19T10:41:57;24.83;;;15.23;;
69330;SDS011;56475;52.114;5.480;2022-08-19T10:44:24;26.15;;;15.82;;
69330;SDS011;56475;52.114;5.480;2022-08-19T10:46:58;36.50;;;16.73;;
69330;SDS011;56475;52.114;5.480;2022-08-19T10:49:25;22.77;;;16.67;;
69330;SDS011;56475;52.114;5.480;2022-08-19T10:51:53;24.98;;;17.05;;
69330;SDS011;56475;52.114;5.480;2022-08-19T10:54:45;24.00;;;17.08;;
69330;SDS011;56475;52.114;5.480;2022-08-19T10:57:34;28.92;;;16.88;;
69330;SDS011;56475;52.114;5.480;2022-08-19T11:00:22;26.73;;;16.50;;
69330;SDS011;56475;52.114;5.480;2022-08-19T11:02:50;26.07;;;16.80;;
69330;SDS011;56475;52.114;5.480;2022-08-19T11:05:18;28.92;;;17.70;;
69330;SDS011;56475;52.114;5.480;2022-08-19T11:07:49;24.52;;;18.73;;
69330;SDS011;56475;52.114;5.480;2022-08-19T11:10:18;29.38;;;20.20;;
69330;SDS011;56475;52.114;5.480;2022-08-19T11:12:47;31.55;;;19.80;;
69330;SDS011;56475;52.114;5.480;2022-08-19T11:15:20;33.13;;;21.27;;
69330;SDS011;56475;52.114;5.480;2022-08-19T11:17:48;32.38;;;21.73;;
69330;SDS011;56475;52.114;5.480;2022-08-19T11:20:15;32.75;;;22.55;;
69330;SDS011;56475;52.114;5.480;2022-08-19T11:22:42;35.83;;;22.52;;
69330;SDS011;56475;52.114;5.480;2022-08-19T11:25:09;31.98;;;22.02;;
69330;SDS011;56475;52.114;5.480;2022-08-19T11:27:38;36.13;;;22.30;;
69330;SDS011;56475;52.114;5.480;2022-08-19T11:30:12;35.33;;;23.05;;
69330;SDS011;56475;52.114;5.480;2022-08-19T11:32:40;35.55;;;23.17;;
69330;SDS011;56475;52.114;5.480;2022-08-19T11:35:14;33.50;;;22.50;;
69330;SDS011;56475;52.114;5.480;2022-08-19T11:37:42;34.17;;;22.48;;
69330;SDS011;56475;52.114;5.480;2022-08-19T11:40:09;39.07;;;23.30;;
69330;SDS011;56475;52.114;5.480;2022-08-19T11:42:37;31.88;;;22.23;;
69330;SDS011;56475;52.114;5.480;2022-08-19T11:45:23;37.03;;;22.70;;
69330;SDS011;56475;52.114;5.480;2022-08-19T11:47:51;38.42;;;22.02;;
69330;SDS011;56475;52.114;5.480;2022-08-19T11:50:19;36.53;;;22.83;;
69330;SDS011;56475;52.114;5.480;2022-08-19T11:52:47;37.13;;;22.63;;
69330;SDS011;56475;52.114;5.480;2022-08-19T11:55:15;32.83;;;23.38;;
69330;SDS011;56475;52.114;5.480;2022-08-19T11:57:42;31.98;;;20.70;;
69330;SDS011;56475;52.114;5.480;2022-08-19T12:00:10;33.45;;;22.90;;
69330;SDS011;56475;52.114;5.480;2022-08-19T12:02:40;37.30;;;22.30;;
69330;SDS011;56475;52.114;5.480;2022-08-19T12:05:07;38.80;;;24.77;;
69330;SDS011;56475;52.114;5.480;2022-08-19T12:07:38;35.50;;;22.17;;
69330;SDS011;56475;52.114;5.480;2022-08-19T12:10:07;37.80;;;22.35;;
69330;SDS011;56475;52.114;5.480;2022-08-19T12:12:35;31.55;;;19.73;;
69330;SDS011;56475;52.114;5.480;2022-08-19T12:15:06;39.08;;;22.95;;
69330;SDS011;56475;52.114;5.480;2022-08-19T12:17:34;33.93;;;22.13;;
69330;SDS011;56475;52.114;5.480;2022-08-19T12:20:02;33.90;;;21.67;;
69330;SDS011;56475;52.114;5.480;2022-08-19T12:22:30;37.60;;;23.10;;
69330;SDS011;56475;52.114;5.480;2022-08-19T12:24:57;33.55;;;22.58;;
69330;SDS011;56475;52.114;5.480;2022-08-19T12:27:24;38.10;;;24.50;;
69330;SDS011;56475;52.114;5.480;2022-08-19T12:30:07;36.60;;;22.30;;
69330;SDS011;56475;52.114;5.480;2022-08-19T12:32:36;36.05;;;23.50;;
69330;SDS011;56475;52.114;5.480;2022-08-19T12:35:04;34.47;;;23.73;;
69330;SDS011;56475;52.114;5.480;2022-08-19T12:37:33;36.50;;;23.20;;
69330;SDS011;56475;52.114;5.480;2022-08-19T12:40:00;39.95;;;24.92;;
69330;SDS011;56475;52.114;5.480;2022-08-19T12:42:28;36.60;;;23.80;;
69330;SDS011;56475;52.114;5.480;2022-08-19T12:44:56;37.35;;;23.27;;
69330;SDS011;56475;52.114;5.480;2022-08-19T12:47:23;33.92;;;22.92;;
69330;SDS011;56475;52.114;5.480;2022-08-19T12:49:52;30.42;;;20.92;;
69330;SDS011;56475;52.114;5.480;2022-08-19T12:52:22;27.30;;;18.90;;
69330;SDS011;56475;52.114;5.480;2022-08-19T12:54:51;26.97;;;18.53;;
69330;SDS011;56475;52.114;5.480;2022-08-19T12:57:23;28.13;;;17.55;;
69330;SDS011;56475;52.114;5.480;2022-08-19T13:00:05;29.20;;;17.00;;
69330;SDS011;56475;52.114;5.480;2022-08-19T13:02:38;21.75;;;16.85;;
69330;SDS011;56475;52.114;5.480;2022-08-19T13:05:08;30.08;;;18.35;;
69330;SDS011;56475;52.114;5.480;2022-08-19T13:07:37;24.40;;;17.10;;
69330;SDS011;56475;52.114;5.480;2022-08-19T13:10:07;34.60;;;16.52;;
69330;SDS011;56475;52.114;5.480;2022-08-19T13:12:38;25.73;;;16.25;;
69330;SDS011;56475;52.114;5.480;2022-08-19T13:15:07;25.67;;;16.95;;
69330;SDS011;56475;52.114;5.480;2022-08-19T13:17:37;26.42;;;15.27;;
69330;SDS011;56475;52.114;5.480;2022-08-19T13:20:08;25.60;;;15.40;;
69330;SDS011;56475;52.114;5.480;2022-08-19T13:22:38;37.90;;;17.25;;
69330;SDS011;56475;52.114;5.480;2022-08-19T13:25:06;36.90;;;17.33;;
69330;SDS011;56475;52.114;5.480;2022-08-19T13:27:34;32.42;;;16.88;;
69330;SDS011;56475;52.114;5.480;2022-08-19T13:30:02;39.63;;;19.70;;
69330;SDS011;56475;52.114;5.480;2022-08-19T13:32:50;45.47;;;19.87;;
69330;SDS011;56475;52.114;5.480;2022-08-19T13:35:35;38.03;;;20.25;;
69330;SDS011;56475;52.114;5.480;2022-08-19T13:38:06;58.05;;;24.45;;
69330;SDS011;56475;52.114;5.480;2022-08-19T13:40:37;36.90;;;23.33;;
69330;SDS011;56475;52.114;5.480;2022-08-19T13:43:06;38.40;;;23.48;;
69330;SDS011;56475;52.114;5.480;2022-08-19T13:45:48;34.00;;;23.20;;
69330;SDS011;56475;52.114;5.480;2022-08-19T13:48:16;36.30;;;22.27;;
69330;SDS011;56475;52.114;5.480;2022-08-19T13:50:45;33.88;;;22.45;;
69330;SDS011;56475;52.114;5.480;2022-08-19T13:53:14;29.55;;;22.52;;
69330;SDS011;56475;52.114;5.480;2022-08-19T13:55:42;31.10;;;21.38;;
69330;SDS011;56475;52.114;5.480;2022-08-19T13:58:10;41.07;;;23.83;;
69330;SDS011;56475;52.114;5.480;2022-08-19T14:00:39;37.05;;;22.17;;
69330;SDS011;56475;52.114;5.480;2022-08-19T14:03:08;43.20;;;24.10;;
69330;SDS011;56475;52.114;5.480;2022-08-19T14:05:35;39.28;;;17.38;;
69330;SDS011;56475;52.114;5.480;2022-08-19T14:08:03;25.80;;;8.55;;
69330;SDS011;56475;52.114;5.480;2022-08-19T14:10:30;17.65;;;6.82;;
69330;SDS011;56475;52.114;5.480;2022-08-19T14:12:59;12.05;;;5.40;;
69330;SDS011;56475;52.114;5.480;2022-08-19T14:15:27;19.00;;;6.00;;
69330;SDS011;56475;52.114;5.480;2022-08-19T14:17:55;9.73;;;5.78;;
69330;SDS011;56475;52.114;5.480;2022-08-19T14:20:22;5.78;;;5.15;;
69330;SDS011;56475;52.114;5.480;2022-08-19T14:22:52;8.93;;;5.95;;
69330;SDS011;56475;52.114;5.480;2022-08-19T14:25:21;10.25;;;5.90;;
69330;SDS011;56475;52.114;5.480;2022-08-19T14:27:50;8.63;;;6.72;;
69330;SDS011;56475;52.114;5.480;2022-08-19T14:30:19;11.98;;;8.77;;
69330;SDS011;56475;52.114;5.480;2022-08-19T14:32:54;15.27;;;10.18;;
69330;SDS011;56475;52.114;5.480;2022-08-19T14:35:22;13.90;;;10.70;;
69330;SDS011;56475;52.114;5.480;2022-08-19T14:37:49;15.45;;;11.07;;
69330;SDS011;56475;52.114;5.480;2022-08-19T14:40:26;17.83;;;11.10;;
69330;SDS011;56475;52.114;5.480;2022-08-19T14:42:55;14.10;;;10.80;;
69330;SDS011;56475;52.114;5.480;2022-08-19T14:45:26;16.77;;;11.35;;
69330;SDS011;56475;52.114;5.480;2022-08-19T14:47:54;17.00;;;11.82;;
69330;SDS011;56475;52.114;5.480;2022-08-19T14:50:22;19.15;;;12.20;;
69330;SDS011;56475;52.114;5.480;2022-08-19T14:52:49;17.75;;;12.10;;
69330;SDS011;56475;52.114;5.480;2022-08-19T14:55:17;19.60;;;13.65;;
69330;SDS011;56475;52.114;5.480;2022-08-19T14:57:44;15.55;;;12.10;;
69330;SDS011;56475;52.114;5.480;2022-08-19T15:00:12;18.35;;;11.82;;
69330;SDS011;56475;52.114;5.480;2022-08-19T15:02:40;14.13;;;10.90;;
69330;SDS011;56475;52.114;5.480;2022-08-19T15:05:07;14.93;;;11.32;;
69330;SDS011;56475;52.114;5.480;2022-08-19T15:07:35;16.45;;;11.13;;